Main page


Airports :

Vienna, Austria

Vienna International Airport

latitude: 48-07N, longitude: 016-34E, elevation: 183 m

Current weather observation

The report was made 36 minutes ago, at 16:50 UTC
Wind 11 kt from the Southeast
Temperature 6°C
Humidity 56%
Pressure 1007 hPa
Visibility 10 km or more
no clouds below 1500 m and no cumulonimbus

METAR: LOWW 241650Z 13011KT CAVOK 06/M02 Q1007 NOSIG

Time: 18:26 (17:26 UTC)


The report was made 6 hours and 11 minutes ago, at 11:15 UTC
Forecast valid from 24 at 12 UTC to 25 at 18 UTC
Wind 10 kt from the South/Southeast
Visibility 10 km or more
Scattered clouds at a height of 5000 ft
Scattered clouds at a height of 28000 ft
from 25 at 07 UTC to 25 at 15 UTC
Wind 15 kt from the South/Southeast with gusts up to 25 kt
Few clouds at a height of 3000 ft
Broken clouds at a height of 3500 ft

TAF: LOWW 241115Z 2412/2518 15010KT 9999 SCT050 SCT280 TX09/2414Z TN01/2505Z TEMPO 2507/2515 15015G25KT FEW030 BKN035

Weather observations and forecasts of more than 4000 airports (METAR and TAF reports).

The available stations are represented by yellow and red dots on the map.

Hover mouse over dot to see the name of the station.

Then click to see weather observations and forecasts.

To change the map : click on the green buttons with a black cross to zoom in, on the green button with a dash to zoom out, or on the green arrows for adjacent maps.